Time;durP1;ratioP1;P1;durP2;ratioP2;P2;SDS_P1;SDS_P2;PMS_P1;PMS_P2;Temp;Humidity;BMP_temperature;BMP_pressure;BME280_temperature;BME280_humidity;BME280_pressure;Samples;Min_cycle;Max_cycle;Signal;HPM_P1;HPM_P2
2023/06/06 00:00:15;;;;;;;;;11.00;9.67;;;;;19.20;49.25;101559.22;5066554;27;45345;-58
2023/06/06 00:02:46;;;;;;;;;9.00;7.67;;;;;19.14;49.30;101559.69;5091313;27;45709;-58
2023/06/06 00:05:13;;;;;;;;;7.67;6.67;;;;;19.08;49.02;101558.28;5068058;28;45595;-58
2023/06/06 00:07:43;;;;;;;;;11.67;9.67;;;;;19.06;49.24;101568.34;5072058;27;45633;-58
2023/06/06 00:10:12;;;;;;;;;6.33;5.33;;;;;19.00;49.56;101563.41;5070779;28;45483;-58
2023/06/06 00:12:41;;;;;;;;;10.00;9.33;;;;;18.95;50.13;101569.09;5072586;27;45482;-59
2023/06/06 00:15:07;;;;;;;;;10.33;10.00;;;;;18.88;49.99;101565.13;5071851;27;45540;-58
2023/06/06 00:17:32;;;;;;;;;10.00;8.00;;;;;18.82;50.63;101558.34;5046305;28;45562;-58
2023/06/06 00:19:58;;;;;;;;;11.67;10.00;;;;;18.78;50.33;101561.38;5073487;27;45401;-58
2023/06/06 00:22:24;;;;;;;;;9.67;8.33;;;;;18.72;50.36;101557.31;5063169;28;65274;-58
2023/06/06 00:24:49;;;;;;;;;13.00;9.00;;;;;18.66;50.56;101550.50;5065934;28;45355;-58
2023/06/06 00:27:15;;;;;;;;;10.67;8.67;;;;;18.62;50.43;101557.09;5064145;28;45397;-58
2023/06/06 00:29:40;;;;;;;;;10.67;9.67;;;;;18.61;50.85;101555.38;5068093;27;46754;-58
2023/06/06 00:32:06;;;;;;;;;11.00;9.00;;;;;18.58;51.29;101552.06;5070952;27;71528;-58
2023/06/06 00:34:31;;;;;;;;;13.33;11.00;;;;;18.53;51.82;101552.38;5064666;27;45368;-59
2023/06/06 00:36:57;;;;;;;;;14.00;9.67;;;;;18.49;51.17;101558.97;5066544;28;60933;-58
2023/06/06 00:39:22;;;;;;;;;11.33;9.67;;;;;18.46;51.04;101551.97;5081825;27;45715;-58
2023/06/06 00:41:48;;;;;;;;;16.33;12.00;;;;;18.43;50.68;101549.47;5066481;27;65197;-58
2023/06/06 00:44:14;;;;;;;;;12.00;9.33;;;;;18.42;51.03;101547.78;5075732;28;45459;-58
2023/06/06 00:46:40;;;;;;;;;11.00;11.00;;;;;18.42;51.30;101542.38;5063834;27;45714;-58
2023/06/06 00:49:10;;;;;;;;;7.00;7.00;;;;;18.41;50.91;101545.16;5065823;28;45373;-58
2023/06/06 00:51:36;;;;;;;;;13.67;11.00;;;;;18.38;51.93;101534.63;5072119;28;45564;-58
2023/06/06 00:54:01;;;;;;;;;9.00;9.00;;;;;18.35;51.54;101541.09;5078585;27;45423;-59
2023/06/06 00:56:28;;;;;;;;;9.00;9.00;;;;;18.31;51.63;101544.97;5068456;28;45673;-58
2023/06/06 00:58:57;;;;;;;;;17.00;12.00;;;;;18.29;51.30;101542.41;5072022;28;47030;-58
2023/06/06 01:01:25;;;;;;;;;10.67;10.33;;;;;18.24;51.68;101530.22;5070788;27;45495;-58
2023/06/06 01:03:52;;;;;;;;;12.67;10.00;;;;;18.21;51.47;101549.28;5060132;27;45558;-58
2023/06/06 01:06:19;;;;;;;;;7.33;7.33;;;;;18.19;51.77;101531.41;5060467;28;45775;-58
2023/06/06 01:08:46;;;;;;;;;15.33;13.00;;;;;18.18;52.19;101535.06;5063065;28;46188;-58
2023/06/06 01:11:23;;;;;;;;;14.67;11.67;;;;;18.13;52.12;101537.25;5074481;27;45521;-58
2023/06/06 01:13:52;;;;;;;;;12.67;11.00;;;;;18.13;52.34;101533.66;5077205;27;45605;-58
2023/06/06 01:16:21;;;;;;;;;12.67;11.00;;;;;18.13;51.64;101522.91;5064033;28;45628;-58
2023/06/06 01:18:48;;;;;;;;;10.33;9.67;;;;;18.12;52.99;101524.75;5043052;28;47305;-58
2023/06/06 01:21:14;;;;;;;;;12.00;10.33;;;;;18.10;52.32;101525.81;5080836;27;45581;-58
2023/06/06 01:23:43;;;;;;;;;11.00;11.00;;;;;18.06;52.33;101527.00;5087205;27;45485;-58
2023/06/06 01:26:08;;;;;;;;;11.67;10.33;;;;;18.02;53.01;101526.38;5051281;28;45511;-58
2023/06/06 01:28:34;;;;;;;;;12.33;11.33;;;;;18.00;52.46;101528.28;5070675;27;46144;-58
2023/06/06 01:30:59;;;;;;;;;14.33;8.67;;;;;17.94;52.27;101521.50;5060361;27;46514;-58
2023/06/06 01:33:32;;;;;;;;;12.67;10.33;;;;;17.96;52.10;101521.41;5067318;28;45679;-58
2023/06/06 01:36:03;;;;;;;;;11.00;9.67;;;;;17.97;52.40;101518.59;5043669;28;45308;-58
2023/06/06 01:39:14;;;;;;;;;11.00;9.33;;;;;17.94;52.71;101520.63;5065217;27;45503;-58
2023/06/06 01:41:40;;;;;;;;;20.33;15.00;;;;;17.92;53.29;101522.56;5062082;27;45442;-58
2023/06/06 01:44:08;;;;;;;;;14.33;12.33;;;;;17.85;52.79;101516.75;5068995;27;46085;-58
2023/06/06 01:46:34;;;;;;;;;15.00;10.67;;;;;17.81;53.80;101512.56;5061949;27;45705;-58
2023/06/06 01:49:00;;;;;;;;;16.00;14.33;;;;;17.74;53.80;101519.31;5072243;27;65509;-58
2023/06/06 01:51:27;;;;;;;;;12.67;12.00;;;;;17.69;53.10;101514.22;5071738;27;46139;-58
2023/06/06 01:53:53;;;;;;;;;12.00;11.67;;;;;17.67;53.75;101521.56;5077319;28;45812;-58
2023/06/06 01:56:19;;;;;;;;;15.00;10.33;;;;;17.62;53.09;101521.03;5062110;28;45325;-58
2023/06/06 01:58:44;;;;;;;;;16.67;13.33;;;;;17.62;54.70;101523.72;5075679;27;74953;-58
2023/06/06 02:01:10;;;;;;;;;16.33;11.00;;;;;17.57;53.70;101515.94;5078380;27;45216;-58
2023/06/06 02:03:36;;;;;;;;;11.00;11.00;;;;;17.53;54.12;101509.06;5078106;27;45827;-58
2023/06/06 02:06:03;;;;;;;;;11.67;11.00;;;;;17.51;53.86;101517.22;5071116;27;45469;-58
2023/06/06 02:08:28;;;;;;;;;17.00;12.67;;;;;17.51;53.78;101517.22;5065141;27;45641;-58
2023/06/06 02:10:54;;;;;;;;;15.67;12.67;;;;;17.51;54.06;101514.53;5071302;28;45317;-58
2023/06/06 02:13:19;;;;;;;;;13.00;11.00;;;;;17.50;53.59;101515.50;5091753;27;45719;-58
2023/06/06 02:15:45;;;;;;;;;11.00;10.67;;;;;17.47;54.11;101517.53;5074488;27;64771;-58
2023/06/06 02:18:10;;;;;;;;;11.67;11.33;;;;;17.43;53.67;101519.59;5074261;28;49476;-59
2023/06/06 02:20:35;;;;;;;;;14.00;13.00;;;;;17.39;55.03;101511.81;5075374;27;45491;-58
2023/06/06 02:23:01;;;;;;;;;14.00;13.00;;;;;17.29;55.71;101525.88;5071491;27;45426;-58
2023/06/06 02:25:26;;;;;;;;;17.33;13.67;;;;;17.23;54.82;101520.91;5066423;27;45570;-58
2023/06/06 02:27:53;;;;;;;;;13.67;11.67;;;;;17.19;55.44;101520.28;5076171;28;47440;-58
2023/06/06 02:30:19;;;;;;;;;12.00;10.67;;;;;17.15;55.22;101525.94;5071340;28;46622;-58
2023/06/06 02:32:45;;;;;;;;;19.33;15.00;;;;;17.09;55.43;101524.53;5066957;28;45615;-58
2023/06/06 02:35:10;;;;;;;;;19.33;18.00;;;;;17.00;57.01;101534.06;5061914;28;46012;-58
2023/06/06 02:37:36;;;;;;;;;16.33;15.00;;;;;16.95;56.14;101521.91;5060868;27;46436;-58
2023/06/06 02:40:08;;;;;;;;;16.00;12.67;;;;;16.90;55.76;101524.00;5047008;28;45246;-58
2023/06/06 02:42:38;;;;;;;;;12.00;11.33;;;;;16.83;57.05;101516.31;5074668;27;45548;-58
2023/06/06 02:45:04;;;;;;;;;13.67;12.67;;;;;16.83;57.08;101526.19;5072842;27;45345;-58
2023/06/06 02:47:30;;;;;;;;;12.67;12.00;;;;;16.80;56.21;101521.03;5064143;27;45406;-58
2023/06/06 02:49:56;;;;;;;;;18.67;16.67;;;;;16.74;56.82;101522.31;5061837;27;45425;-58
2023/06/06 02:52:22;;;;;;;;;14.00;13.33;;;;;16.70;56.63;101518.94;5066712;28;67879;-58
2023/06/06 02:54:47;;;;;;;;;16.67;14.33;;;;;16.68;56.24;101518.16;5073846;27;45439;-58
2023/06/06 02:57:12;;;;;;;;;13.33;13.33;;;;;16.65;56.18;101513.00;5074131;27;57406;-58
2023/06/06 02:59:38;;;;;;;;;17.33;14.33;;;;;16.68;57.08;101515.47;5067486;27;62334;-58
2023/06/06 03:02:04;;;;;;;;;9.00;7.33;;;;;16.66;56.28;101514.75;5085941;27;54366;-58
2023/06/06 03:04:29;;;;;;;;;17.00;15.00;;;;;16.64;57.20;101513.97;5064239;28;45392;-58
2023/06/06 03:06:56;;;;;;;;;20.00;15.33;;;;;16.63;57.27;101511.38;5062643;28;56283;-57
2023/06/06 03:09:24;;;;;;;;;16.00;15.00;;;;;16.60;57.13;101512.44;5073011;28;45657;-58
2023/06/06 03:11:49;;;;;;;;;20.67;17.33;;;;;16.57;56.61;101506.41;5069577;27;45560;-58
2023/06/06 03:14:15;;;;;;;;;16.33;14.33;;;;;16.55;57.64;101509.19;5071405;27;45780;-58
2023/06/06 03:16:41;;;;;;;;;19.67;14.67;;;;;16.52;57.58;101512.06;5062814;28;55713;-58
2023/06/06 03:19:07;;;;;;;;;28.33;22.67;;;;;16.49;57.82;101520.31;5071758;27;45923;-58
2023/06/06 03:21:33;;;;;;;;;15.67;14.00;;;;;16.44;58.25;101525.09;5071251;27;45522;-58
2023/06/06 03:23:59;;;;;;;;;17.67;16.67;;;;;16.40;57.76;101520.91;5074585;27;45259;-58
2023/06/06 03:26:26;;;;;;;;;16.67;14.67;;;;;16.39;57.46;101522.72;5073813;28;47532;-58
2023/06/06 03:28:52;;;;;;;;;21.67;16.00;;;;;16.34;58.10;101517.63;5061489;27;45353;-58
2023/06/06 03:31:23;;;;;;;;;9.67;5.00;;;;;16.30;59.37;101518.78;5066555;27;45767;-57
2023/06/06 03:33:51;;;;;;;;;19.33;17.33;;;;;16.28;58.18;101518.03;5062541;28;45478;-58
2023/06/06 03:36:16;;;;;;;;;17.67;16.33;;;;;16.22;58.83;101518.44;5069849;28;46569;-58
2023/06/06 03:38:42;;;;;;;;;10.33;8.33;;;;;16.17;59.18;101518.69;5070592;27;67906;-58
2023/06/06 03:41:08;;;;;;;;;18.00;15.67;;;;;16.19;58.92;101519.47;5065155;28;45503;-57
2023/06/06 03:43:35;;;;;;;;;20.00;18.33;;;;;16.12;58.64;101517.28;5090719;27;45464;-58
2023/06/06 03:46:00;;;;;;;;;20.33;17.67;;;;;16.10;59.97;101521.84;5062958;27;45454;-57
2023/06/06 03:48:26;;;;;;;;;24.00;18.00;;;;;16.10;58.86;101521.84;5058037;28;45498;-58
2023/06/06 03:50:51;;;;;;;;;16.33;16.33;;;;;16.30;59.53;101523.31;5068099;28;48604;-58
2023/06/06 03:53:16;;;;;;;;;28.67;17.33;;;;;16.29;58.58;101533.16;5058241;28;45493;-57
2023/06/06 03:55:44;;;;;;;;;22.67;17.00;;;;;16.17;59.86;101528.59;5071707;28;46167;-58
2023/06/06 03:58:10;;;;;;;;;25.67;20.33;;;;;16.10;59.48;101529.91;5068107;28;46590;-57
2023/06/06 04:00:37;;;;;;;;;23.67;20.00;;;;;16.01;59.38;101529.53;5072294;28;45455;-58
2023/06/06 04:03:03;;;;;;;;;20.00;16.33;;;;;16.09;58.51;101525.50;5058473;27;45595;-58
2023/06/06 04:05:30;;;;;;;;;23.33;18.33;;;;;16.03;59.39;101529.44;5060490;27;46186;-58
2023/06/06 04:07:56;;;;;;;;;31.33;23.67;;;;;16.25;59.00;101528.97;5075259;28;45397;-58
2023/06/06 04:10:21;;;;;;;;;27.33;23.00;;;;;16.32;58.33;101526.75;5074404;28;45413;-58
2023/06/06 04:12:46;;;;;;;;;21.67;19.67;;;;;16.11;59.62;101528.97;5067120;28;46740;-58
2023/06/06 04:15:12;;;;;;;;;21.33;18.67;;;;;16.50;57.47;101538.16;5066732;28;68968;-58
2023/06/06 04:17:37;;;;;;;;;29.00;23.67;;;;;16.13;59.30;101530.59;5070318;27;45485;-58
2023/06/06 04:20:04;;;;;;;;;23.00;19.00;;;;;16.02;59.67;101528.56;5069950;27;45454;-57
2023/06/06 04:22:30;;;;;;;;;20.33;17.00;;;;;15.99;59.42;101533.25;5076875;27;45502;-57
2023/06/06 04:24:55;;;;;;;;;25.00;21.33;;;;;15.96;61.01;101533.47;5060696;28;46412;-58
2023/06/06 04:27:23;;;;;;;;;28.33;23.33;;;;;15.95;60.51;101539.78;5073740;27;64390;-58
2023/06/06 04:29:53;;;;;;;;;27.67;24.00;;;;;16.33;58.91;101534.69;5067455;28;45471;-57
2023/06/06 04:32:19;;;;;;;;;26.67;25.67;;;;;16.04;60.46;101536.53;5074008;28;45516;-58
2023/06/06 04:34:45;;;;;;;;;30.33;23.33;;;;;16.13;59.07;101527.91;5075077;28;45418;-57
2023/06/06 04:37:13;;;;;;;;;33.33;27.67;;;;;16.13;59.82;101535.09;5069527;27;45468;-58
2023/06/06 04:39:39;;;;;;;;;31.67;30.33;;;;;16.13;59.23;101535.09;5064934;27;45570;-58
2023/06/06 04:42:05;;;;;;;;;35.33;32.00;;;;;16.11;59.96;101531.63;5069853;28;45993;-57
2023/06/06 04:44:31;;;;;;;;;34.67;28.67;;;;;16.46;58.91;101529.41;5046831;27;47536;-58
2023/06/06 04:47:00;;;;;;;;;27.67;26.33;;;;;16.20;60.10;101537.31;5076519;28;45295;-58
2023/06/06 04:49:27;;;;;;;;;39.00;27.33;;;;;16.18;60.37;101536.53;5064600;27;45710;-58
2023/06/06 04:51:53;;;;;;;;;33.00;30.67;;;;;16.18;61.67;101533.00;5067830;28;45502;-57
2023/06/06 04:54:19;;;;;;;;;37.67;23.67;;;;;16.18;60.21;101531.16;5071764;28;46120;-58
2023/06/06 04:56:45;;;;;;;;;34.33;29.67;;;;;16.20;60.44;101533.75;5065106;27;45763;-57
2023/06/06 04:59:10;;;;;;;;;36.67;29.67;;;;;16.21;60.45;101527.44;5070171;27;45459;-58
2023/06/06 05:01:36;;;;;;;;;32.33;27.33;;;;;16.27;60.12;101535.09;5070277;27;66459;-57
2023/06/06 05:04:03;;;;;;;;;31.33;31.33;;;;;16.33;59.92;101532.00;5066782;28;46231;-57
2023/06/06 05:06:31;;;;;;;;;34.67;29.33;;;;;16.43;59.83;101540.38;5082374;27;45398;-58
2023/06/06 05:08:57;;;;;;;;;31.33;29.33;;;;;16.52;59.83;101533.56;5062166;28;45385;-58
2023/06/06 05:11:22;;;;;;;;;34.33;28.67;;;;;16.63;59.71;101532.88;5085295;27;45975;-58
2023/06/06 05:13:47;;;;;;;;;34.67;31.00;;;;;16.72;59.63;101531.41;5065035;27;70182;-58
2023/06/06 05:16:13;;;;;;;;;31.33;28.33;;;;;16.80;59.07;101534.47;5068437;27;59930;-58
2023/06/06 05:18:38;;;;;;;;;35.00;31.00;;;;;16.87;59.42;101531.28;5063322;28;46768;-58
2023/06/06 05:21:04;;;;;;;;;34.67;30.00;;;;;16.94;58.23;101525.53;5065545;27;45487;-57
2023/06/06 05:23:30;;;;;;;;;25.67;23.67;;;;;17.01;59.51;101527.72;5067964;27;46128;-58
2023/06/06 05:25:57;;;;;;;;;32.33;29.00;;;;;17.07;58.51;101525.59;5075090;27;45603;-58
2023/06/06 05:28:28;;;;;;;;;32.00;28.00;;;;;17.13;58.36;101535.94;5070150;27;45434;-58
2023/06/06 05:30:56;;;;;;;;;31.00;31.00;;;;;17.17;57.97;101532.94;5073340;27;45412;-58
2023/06/06 05:33:25;;;;;;;;;32.00;32.00;;;;;17.25;58.11;101536.94;5073131;28;45542;-57
2023/06/06 05:35:51;;;;;;;;;32.33;30.33;;;;;17.33;57.78;101535.47;5077431;27;45575;-58
2023/06/06 05:38:18;;;;;;;;;34.00;29.33;;;;;17.47;57.30;101533.66;5073282;27;45486;-58
2023/06/06 05:40:43;;;;;;;;;35.00;27.00;;;;;17.56;56.80;101535.75;5074349;27;45544;-57
2023/06/06 05:43:08;;;;;;;;;29.00;26.00;;;;;17.60;56.66;101531.88;5059722;28;47425;-58
2023/06/06 05:45:34;;;;;;;;;32.33;30.00;;;;;17.66;56.37;101522.53;5066354;27;70340;-57
2023/06/06 05:48:00;;;;;;;;;30.67;28.00;;;;;17.77;56.58;101535.22;5078517;28;45426;-56
2023/06/06 05:50:25;;;;;;;;;26.67;26.67;;;;;17.85;56.43;101532.88;5076607;28;45444;-57
2023/06/06 05:52:50;;;;;;;;;44.33;32.67;;;;;17.89;55.82;101539.78;5070539;27;45709;-57
2023/06/06 05:55:31;;;;;;;;;34.67;30.00;;;;;17.95;55.77;101539.41;5064523;28;69994;-57
2023/06/06 05:57:57;;;;;;;;;37.33;29.00;;;;;17.98;55.86;101541.84;5070529;28;45578;-57
2023/06/06 06:00:27;;;;;;;;;36.00;30.00;;;;;17.94;55.80;101542.16;5077894;27;45624;-57
2023/06/06 06:02:55;;;;;;;;;28.00;27.00;;;;;17.84;56.04;101541.94;5073654;28;46594;-57
2023/06/06 06:05:21;;;;;;;;;33.33;30.00;;;;;17.76;55.47;101545.13;5065777;27;45454;-57
2023/06/06 06:07:54;;;;;;;;;30.33;29.33;;;;;17.73;55.93;101541.78;5068654;28;45506;-57
2023/06/06 06:10:20;;;;;;;;;37.33;31.00;;;;;17.75;56.53;101539.88;5060347;27;45613;-57
2023/06/06 06:12:45;;;;;;;;;35.33;31.00;;;;;17.75;56.27;101542.56;5076017;27;45660;-57
2023/06/06 06:15:11;;;;;;;;;39.00;34.33;;;;;17.72;56.96;101538.25;5069355;28;72140;-57
2023/06/06 06:17:36;;;;;;;;;38.33;34.00;;;;;17.77;56.13;101546.00;5060214;28;57960;-56
2023/06/06 06:20:08;;;;;;;;;32.33;31.00;;;;;17.84;56.27;101547.31;5064686;28;45532;-56
2023/06/06 06:22:35;;;;;;;;;36.00;26.33;;;;;18.08;56.21;101546.59;5066823;28;45528;-56
2023/06/06 06:25:00;;;;;;;;;40.00;32.00;;;;;18.60;54.78;101539.31;5060034;27;45477;-56
2023/06/06 06:27:25;;;;;;;;;34.00;31.33;;;;;18.98;53.90;101541.94;5072851;27;57359;-56
2023/06/06 06:29:50;;;;;;;;;35.67;32.00;;;;;19.32;53.19;101542.13;5074292;28;67778;-56
2023/06/06 06:32:17;;;;;;;;;40.67;34.00;;;;;19.31;53.36;101542.25;5076271;27;53415;-57
2023/06/06 06:34:43;;;;;;;;;37.33;31.00;;;;;19.71;52.40;101549.13;5062663;27;45562;-57
2023/06/06 06:37:08;;;;;;;;;39.00;33.33;;;;;20.10;51.45;101544.31;5075038;27;45463;-57
2023/06/06 06:39:34;;;;;;;;;35.00;31.33;;;;;20.38;50.17;101545.69;5072878;27;45435;-57
2023/06/06 06:41:59;;;;;;;;;43.67;32.00;;;;;20.13;51.08;101539.53;5074155;27;45657;-57
2023/06/06 06:44:25;;;;;;;;;44.67;31.67;;;;;20.44;50.60;101555.13;5069129;28;45426;-57
2023/06/06 06:46:50;;;;;;;;;40.00;32.67;;;;;20.83;49.83;101552.94;5078295;27;45724;-57
2023/06/06 06:49:16;;;;;;;;;19.67;17.67;;;;;20.96;48.11;101556.34;5074421;28;45327;-57
2023/06/06 06:51:41;;;;;;;;;38.00;32.67;;;;;20.86;48.37;101550.00;5068828;27;47353;-58
2023/06/06 06:54:11;;;;;;;;;42.67;33.00;;;;;20.78;48.82;101547.03;5073437;28;45945;-58
2023/06/06 06:56:36;;;;;;;;;33.00;31.00;;;;;20.79;48.30;101554.16;5067953;27;45267;-58
2023/06/06 06:59:03;;;;;;;;;32.33;30.00;;;;;20.88;47.96;101556.09;5074915;28;45480;-58
2023/06/06 07:01:29;;;;;;;;;39.33;33.00;;;;;21.10;48.27;101547.09;5072932;27;45499;-57
2023/06/06 07:03:54;;;;;;;;;38.67;30.67;;;;;21.06;48.65;101552.88;5084529;27;45499;-58
2023/06/06 07:06:20;;;;;;;;;37.33;31.00;;;;;21.19;47.66;101544.63;5089654;27;45461;-58
2023/06/06 07:08:45;;;;;;;;;35.33;30.00;;;;;21.13;47.66;101546.84;5074452;27;45494;-58
2023/06/06 07:11:11;;;;;;;;;42.67;29.67;;;;;20.94;47.46;101543.94;5076310;28;46223;-58
2023/06/06 07:13:36;;;;;;;;;34.00;31.67;;;;;21.29;47.69;101549.13;5062706;28;60494;-58
2023/06/06 07:16:02;;;;;;;;;41.00;31.00;;;;;21.54;46.40;101560.63;5086373;27;45480;-58
2023/06/06 07:18:28;;;;;;;;;34.33;30.00;;;;;22.24;46.70;101551.94;5070386;28;46265;-58
2023/06/06 07:20:53;;;;;;;;;39.00;32.00;;;;;22.54;46.18;101550.22;5071077;27;45472;-58
2023/06/06 07:23:18;;;;;;;;;44.33;33.33;;;;;23.55;45.71;101542.84;5075203;28;67563;-58
2023/06/06 07:25:44;;;;;;;;;40.67;33.33;;;;;24.04;43.59;101550.97;5072424;28;45739;-58
2023/06/06 07:28:13;;;;;;;;;39.00;32.67;;;;;24.01;42.90;101553.94;5071602;28;45499;-57
2023/06/06 07:30:38;;;;;;;;;32.33;30.00;;;;;24.58;43.03;101542.16;5073542;27;46380;-57
2023/06/06 07:33:04;;;;;;;;;37.67;31.33;;;;;25.85;39.40;101538.53;5075166;27;45478;-57
2023/06/06 07:35:32;;;;;;;;;36.67;30.67;;;;;27.31;37.33;101547.66;5076220;28;45444;-58
2023/06/06 07:37:59;;;;;;;;;37.67;32.00;;;;;28.57;37.95;101545.47;5076873;28;45419;-58
2023/06/06 07:40:24;;;;;;;;;31.33;29.67;;;;;29.33;35.65;101537.53;5072047;28;45382;-58
2023/06/06 07:42:50;;;;;;;;;29.33;25.67;;;;;30.02;31.69;101536.56;5078449;27;72384;-58
2023/06/06 07:45:16;;;;;;;;;33.33;32.00;;;;;31.08;32.44;101536.28;5072818;27;45354;-57
2023/06/06 07:47:41;;;;;;;;;37.33;29.00;;;;;32.02;32.12;101539.88;5075963;28;45288;-56
2023/06/06 07:50:07;;;;;;;;;33.33;29.00;;;;;32.74;28.38;101542.41;5078559;27;49523;-57
2023/06/06 07:52:32;;;;;;;;;38.00;30.33;;;;;33.70;30.36;101546.81;5077143;27;45346;-56
2023/06/06 07:54:59;;;;;;;;;36.00;31.33;;;;;34.76;29.07;101542.06;5074405;28;45493;-56
2023/06/06 07:57:25;;;;;;;;;30.67;29.67;;;;;35.76;24.86;101546.09;5077417;28;45422;-56
2023/06/06 07:59:51;;;;;;;;;33.00;29.00;;;;;36.29;25.20;101552.16;5078100;27;46198;-57
2023/06/06 08:02:16;;;;;;;;;39.33;29.33;;;;;35.53;25.45;101555.00;5073492;28;45414;-57
2023/06/06 08:04:45;;;;;;;;;34.67;28.00;;;;;34.62;26.94;101543.22;5067225;27;45415;-58
2023/06/06 08:07:10;;;;;;;;;36.00;29.00;;;;;34.22;24.98;101544.16;5075157;27;45494;-57
2023/06/06 08:09:37;;;;;;;;;32.33;30.33;;;;;34.25;25.71;101542.88;5071140;27;46268;-57
2023/06/06 08:12:04;;;;;;;;;34.33;27.67;;;;;35.35;26.34;101539.19;5063550;27;45546;-57
2023/06/06 08:14:31;;;;;;;;;34.00;29.00;;;;;36.94;24.81;101538.81;5062031;28;45440;-57
2023/06/06 08:16:56;;;;;;;;;31.33;30.33;;;;;38.31;23.99;101538.84;5066688;28;45426;-57
2023/06/06 08:19:22;;;;;;;;;29.67;28.00;;;;;39.60;22.63;101539.28;5077630;27;46403;-57
2023/06/06 08:21:47;;;;;;;;;32.00;28.67;;;;;40.56;21.78;101536.47;5078130;27;45411;-57
2023/06/06 08:24:12;;;;;;;;;33.33;30.67;;;;;41.20;21.18;101538.56;5077300;27;59218;-57
2023/06/06 08:26:38;;;;;;;;;29.00;25.00;;;;;41.91;20.77;101544.97;5077908;27;45206;-58
2023/06/06 08:29:03;;;;;;;;;35.00;29.67;;;;;42.50;17.33;101534.63;5076878;28;47605;-58
2023/06/06 08:31:30;;;;;;;;;33.00;28.33;;;;;43.08;18.00;101540.06;5077410;27;57717;-58
2023/06/06 08:33:56;;;;;;;;;29.00;27.00;;;;;43.60;17.76;101540.94;5076356;28;45399;-59
2023/06/06 08:36:21;;;;;;;;;28.00;26.67;;;;;43.87;16.40;101542.53;5076174;28;45593;-58
2023/06/06 08:38:47;;;;;;;;;32.67;29.33;;;;;43.92;17.13;101539.75;5070876;27;45601;-58
2023/06/06 08:41:13;;;;;;;;;31.33;27.67;;;;;44.06;16.37;101537.19;5078017;27;57630;-58
2023/06/06 08:43:39;;;;;;;;;29.33;27.67;;;;;44.44;16.05;101537.59;5060742;28;45478;-58
2023/06/06 08:46:05;;;;;;;;;31.67;28.33;;;;;45.10;16.53;101538.31;5074060;27;45475;-56
2023/06/06 08:48:35;;;;;;;;;25.00;25.00;;;;;45.64;16.14;101539.25;5078559;27;45371;-57
2023/06/06 08:51:01;;;;;;;;;35.33;30.33;;;;;46.20;13.33;101545.38;5074457;27;45749;-56
2023/06/06 08:53:26;;;;;;;;;30.33;29.00;;;;;46.63;15.16;101558.59;5078800;27;45400;-57
2023/06/06 08:55:55;;;;;;;;;30.67;29.33;;;;;46.97;14.34;101554.72;5074362;28;45683;-56
2023/06/06 08:58:21;;;;;;;;;29.00;27.33;;;;;47.62;14.31;101541.78;5065415;28;45378;-57
2023/06/06 09:00:49;;;;;;;;;30.33;28.67;;;;;48.46;14.65;101551.88;5080524;27;53408;-58
2023/06/06 09:03:14;;;;;;;;;30.00;28.67;;;;;48.93;12.09;101553.69;5091232;27;45629;-57
2023/06/06 09:05:41;;;;;;;;;28.00;27.00;;;;;48.94;13.30;101550.53;5076911;28;45456;-57
2023/06/06 09:08:06;;;;;;;;;29.33;26.33;;;;;49.40;13.44;101551.34;5075360;27;53443;-57
2023/06/06 09:10:32;;;;;;;;;29.67;27.33;;;;;49.93;12.31;101546.75;5090385;27;45532;-57
2023/06/06 09:12:57;;;;;;;;;32.00;29.67;;;;;50.46;12.16;101553.41;5066969;27;58098;-58
2023/06/06 09:15:25;;;;;;;;;27.33;26.33;;;;;51.01;10.20;101551.09;5075897;27;45711;-57
2023/06/06 09:17:53;;;;;;;;;27.67;25.33;;;;;51.17;11.45;101554.22;5078113;28;45465;-58
2023/06/06 09:20:18;;;;;;;;;31.00;28.33;;;;;51.72;10.82;101546.88;5077396;28;45368;-58
2023/06/06 09:22:46;;;;;;;;;28.33;25.00;;;;;51.82;11.54;101539.22;5078386;27;45348;-58
2023/06/06 09:25:20;;;;;;;;;27.33;26.67;;;;;52.34;10.68;101538.91;5077514;28;45595;-58
2023/06/06 09:27:46;;;;;;;;;24.33;23.00;;;;;52.72;11.00;101534.25;5064931;28;45507;-58
2023/06/06 09:30:25;;;;;;;;;31.67;26.67;;;;;53.04;10.46;101534.63;5069387;27;45377;-58
2023/06/06 09:32:52;;;;;;;;;28.33;25.33;;;;;52.91;10.24;101542.25;5073302;28;45959;-57
2023/06/06 09:35:19;;;;;;;;;23.00;22.00;;;;;52.64;9.93;101535.16;5084911;27;45445;-58
2023/06/06 09:37:48;;;;;;;;;26.33;26.33;;;;;52.64;9.86;101526.66;5070006;27;45317;-58
2023/06/06 09:40:15;;;;;;;;;22.00;20.00;;;;;52.73;8.65;101533.91;5073733;27;45467;-58
2023/06/06 09:42:45;;;;;;;;;23.33;23.33;;;;;53.00;9.06;101526.00;5076781;27;45543;-58
2023/06/06 09:45:12;;;;;;;;;26.33;25.00;;;;;53.66;8.71;101523.41;5073649;27;45360;-58
2023/06/06 09:47:45;;;;;;;;;27.67;22.67;;;;;54.15;8.86;101526.22;5067119;28;47161;-58
2023/06/06 09:50:11;;;;;;;;;24.67;23.33;;;;;54.34;8.07;101525.56;5069717;27;45553;-58
2023/06/06 09:52:37;;;;;;;;;27.67;25.33;;;;;54.32;8.54;101525.13;5072208;27;45403;-58
2023/06/06 09:55:06;;;;;;;;;26.00;23.67;;;;;54.16;9.34;101519.38;5069896;27;45529;-57
2023/06/06 09:57:35;;;;;;;;;26.00;23.67;;;;;54.86;8.84;101517.34;5071048;28;47411;-57
2023/06/06 10:00:10;;;;;;;;;21.00;20.00;;;;;55.17;7.44;101519.44;5068840;27;45498;-57
2023/06/06 10:02:40;;;;;;;;;25.33;22.00;;;;;54.87;7.89;101524.69;5069810;28;45398;-57
2023/06/06 10:05:06;;;;;;;;;28.33;26.67;;;;;54.68;8.35;101514.78;5061410;27;45455;-57
2023/06/06 10:07:32;;;;;;;;;25.67;24.00;;;;;54.91;7.53;101519.06;5066007;28;46794;-58
2023/06/06 10:09:57;;;;;;;;;26.00;25.00;;;;;54.88;8.35;101518.63;5071710;27;45831;-58
2023/06/06 10:12:23;;;;;;;;;28.67;27.67;;;;;55.08;8.13;101513.06;5070631;28;45469;-58
2023/06/06 10:14:48;;;;;;;;;21.67;21.00;;;;;55.80;8.16;101500.66;5060758;28;69755;-57
2023/06/06 10:17:14;;;;;;;;;25.67;25.67;;;;;56.36;8.31;101506.38;5072955;28;45480;-57
2023/06/06 10:19:40;;;;;;;;;23.00;23.00;;;;;56.98;7.21;101503.53;5085935;27;45362;-58
2023/06/06 10:22:06;;;;;;;;;24.33;24.33;;;;;57.34;7.59;101500.53;5075899;27;45413;-58
2023/06/06 10:24:33;;;;;;;;;22.67;21.67;;;;;57.25;6.79;101507.28;5073046;27;67123;-58
2023/06/06 10:27:06;;;;;;;;;20.33;20.00;;;;;57.26;7.13;101496.69;5068901;27;45789;-58
2023/06/06 10:29:51;;;;;;;;;22.67;22.00;;;;;57.85;6.83;101497.22;5066939;27;45629;-58
2023/06/06 10:32:44;;;;;;;;;26.67;22.00;;;;;58.58;7.08;101501.88;5073049;28;45306;-58
2023/06/06 10:35:12;;;;;;;;;23.33;21.00;;;;;58.68;6.29;101500.38;5071701;27;45544;-58
2023/06/06 10:37:38;;;;;;;;;19.67;19.67;;;;;59.09;7.03;101504.06;5068900;27;64189;-58
2023/06/06 10:40:05;;;;;;;;;20.67;19.00;;;;;59.14;6.27;101504.91;5076313;27;45374;-58
2023/06/06 10:42:38;;;;;;;;;22.33;21.33;;;;;59.00;6.96;101497.84;5079195;28;45472;-58
2023/06/06 10:45:06;;;;;;;;;24.67;23.67;;;;;59.16;5.84;101500.47;5076623;27;45435;-58
2023/06/06 10:47:33;;;;;;;;;23.33;21.33;;;;;59.46;6.16;101498.63;5079046;28;48108;-58
2023/06/06 10:50:07;;;;;;;;;24.00;22.33;;;;;59.07;5.81;101494.22;5087153;27;45421;-59
2023/06/06 10:52:43;;;;;;;;;25.00;23.00;;;;;59.28;6.79;101482.13;5078375;27;45486;-58
2023/06/06 10:55:20;;;;;;;;;25.67;24.00;;;;;59.71;6.61;101490.22;5065651;27;45506;-59
2023/06/06 10:57:55;;;;;;;;;23.33;21.67;;;;;59.70;5.45;101477.09;5069637;28;46216;-59
2023/06/06 11:00:23;;;;;;;;;22.67;20.00;;;;;58.85;6.24;101482.56;5064931;27;45515;-59
2023/06/06 11:02:48;;;;;;;;;21.33;20.67;;;;;57.87;6.66;101477.66;5071131;28;45482;-58
2023/06/06 11:05:13;;;;;;;;;19.67;18.67;;;;;57.21;6.69;101472.13;5066954;27;58500;-58
2023/06/06 11:07:39;;;;;;;;;21.33;20.33;;;;;57.01;6.50;101474.25;5091928;27;46661;-59
2023/06/06 11:10:05;;;;;;;;;22.00;20.00;;;;;56.89;6.71;101466.69;5076262;27;45716;-58